Time;durP1;ratioP1;P1;durP2;ratioP2;P2;SDS_P1;SDS_P2;PMS_P1;PMS_P2;Temp;Humidity;BMP_temperature;BMP_pressure;BME280_temperature;BME280_humidity;BME280_pressure;Samples;Min_cycle;Max_cycle;Signal;HPM_P1;HPM_P2
2021/12/12 00:01:26;;;;;;;25.45;9.95;;;;;;;3.00;88.75;102009.25;5034611;28;20554;-82
2021/12/12 00:03:56;;;;;;;25.35;11.07;;;;;;;3.01;88.56;102017.06;5050940;28;20448;-80
2021/12/12 00:06:28;;;;;;;19.00;9.75;;;;;;;3.02;88.77;102011.06;5051855;28;20060;-84
2021/12/12 00:08:58;;;;;;;23.45;10.25;;;;;;;3.03;88.41;102009.34;5034732;28;20025;-79
2021/12/12 00:11:28;;;;;;;20.23;8.32;;;;;;;3.04;88.01;102014.59;5033137;28;20121;-82
2021/12/12 00:14:10;;;;;;;21.95;10.20;;;;;;;3.05;88.43;102006.00;5029118;28;20596;-82
2021/12/12 00:16:36;;;;;;;20.02;8.32;;;;;;;3.05;88.33;102016.38;5029179;28;20032;-81
2021/12/12 00:19:04;;;;;;;24.50;10.52;;;;;;;3.06;88.60;102002.59;4999448;28;20037;-83
2021/12/12 00:21:31;;;;;;;22.63;9.43;;;;;;;3.07;88.60;102004.34;5028256;28;20438;-86
2021/12/12 00:23:58;;;;;;;16.33;9.45;;;;;;;3.09;88.05;102000.13;5027863;28;20037;-82
2021/12/12 00:26:27;;;;;;;29.48;9.30;;;;;;;3.11;88.20;101995.88;5030333;28;20065;-80
2021/12/12 00:28:53;;;;;;;16.42;7.45;;;;;;;3.15;87.97;101993.38;5040491;28;20396;-83
2021/12/12 00:31:20;;;;;;;19.42;9.07;;;;;;;3.18;88.01;101996.13;5033538;28;20114;-84
2021/12/12 00:33:50;;;;;;;21.45;10.35;;;;;;;3.19;87.44;101987.50;5033667;28;20473;-83
2021/12/12 00:36:17;;;;;;;21.85;10.25;;;;;;;3.21;87.45;101980.69;5033424;28;20043;-83
2021/12/12 00:38:46;;;;;;;16.63;8.88;;;;;;;3.20;87.71;101978.91;5016558;28;20084;-81
2021/12/12 00:41:13;;;;;;;19.80;8.88;;;;;;;3.21;87.37;101981.56;5032402;28;20116;-84
2021/12/12 00:43:59;;;;;;;18.58;8.23;;;;;;;3.23;87.92;101982.50;5017319;28;20051;-83
2021/12/12 00:46:27;;;;;;;23.58;9.02;;;;;;;3.25;88.07;101986.03;5031345;28;20127;-86
2021/12/12 00:48:54;;;;;;;25.83;10.18;;;;;;;3.26;87.93;101977.44;5030647;28;20055;-85
2021/12/12 00:51:26;;;;;;;18.30;8.57;;;;;;;3.29;87.89;101981.84;5033822;28;20024;-84
2021/12/12 00:53:52;;;;;;;20.08;10.10;;;;;;;3.33;87.60;101975.06;5031700;28;20046;-82
2021/12/12 00:56:18;;;;;;;20.58;8.45;;;;;;;3.38;87.22;101976.13;5033327;28;20419;-85
2021/12/12 00:58:44;;;;;;;22.95;8.52;;;;;;;3.41;87.57;101969.31;5017293;28;20056;-81
2021/12/12 01:01:14;;;;;;;17.63;8.82;;;;;;;3.46;86.64;101967.78;5032814;28;20107;-85
2021/12/12 01:03:46;;;;;;;15.40;7.73;;;;;;;3.49;87.15;101966.13;5032643;28;20024;-81
2021/12/12 01:06:13;;;;;;;16.63;6.72;;;;;;;3.48;86.77;101960.06;5032978;28;20312;-84
2021/12/12 01:08:41;;;;;;;19.30;8.15;;;;;;;3.51;87.20;101956.72;4999630;28;20029;-78
2021/12/12 01:11:48;;;;;;;33.15;8.95;;;;;;;3.57;86.54;101959.50;5032685;28;20021;-80
2021/12/12 01:14:18;;;;;;;14.65;7.57;;;;;;;3.54;86.55;101955.09;5024284;28;20033;-83
2021/12/12 01:17:10;;;;;;;24.92;8.75;;;;;;;3.55;87.42;101961.13;5019599;28;20355;-81
2021/12/12 01:19:44;;;;;;;21.45;8.65;;;;;;;3.53;87.42;101961.09;5030267;28;20047;-80
2021/12/12 01:22:16;;;;;;;15.98;7.60;;;;;;;3.52;87.44;101958.44;5031968;28;20021;-81
2021/12/12 01:24:47;;;;;;;18.33;8.80;;;;;;;3.50;87.67;101949.75;5029356;28;20033;-81
2021/12/12 01:27:14;;;;;;;18.52;7.53;;;;;;;3.50;87.36;101960.13;5027437;28;20047;-84
2021/12/12 01:29:42;;;;;;;15.52;7.13;;;;;;;3.48;87.67;101957.47;5031363;28;20373;-81
2021/12/12 01:32:17;;;;;;;27.38;8.52;;;;;;;3.48;87.73;101960.06;5022468;28;20501;-83
2021/12/12 01:34:43;;;;;;;19.00;9.00;;;;;;;3.49;87.88;101960.94;5045987;28;20032;-82
2021/12/12 01:40:00;;;;;;;30.27;10.15;;;;;;;3.49;88.26;101960.94;5049393;28;20705;-84
2021/12/12 01:42:35;;;;;;;27.35;8.73;;;;;;;3.50;88.28;101954.94;5028749;28;20501;-77
2021/12/12 01:45:07;;;;;;;22.05;9.40;;;;;;;3.49;88.17;101972.16;5025697;28;20028;-78
2021/12/12 01:47:51;;;;;;;28.23;9.70;;;;;;;3.49;88.43;101961.81;5025216;28;20056;-79
2021/12/12 01:50:25;;;;;;;41.22;9.80;;;;;;;3.49;88.92;101971.31;5025527;28;20044;-81
2021/12/12 01:52:54;;;;;;;23.80;9.43;;;;;;;3.44;89.28;101969.44;5027593;28;20140;-79
2021/12/12 01:55:30;;;;;;;28.30;10.05;;;;;;;3.47;89.66;101961.75;5024003;28;20186;-82
2021/12/12 01:58:00;;;;;;;22.70;8.73;;;;;;;3.45;89.69;101958.25;5026059;28;20087;-83
2021/12/12 02:00:32;;;;;;;26.15;7.95;;;;;;;3.44;89.78;101964.25;5022626;28;20079;-82
2021/12/12 02:02:59;;;;;;;19.55;9.30;;;;;;;3.43;89.27;101956.41;5045178;28;20028;-79
2021/12/12 02:05:27;;;;;;;16.67;9.15;;;;;;;3.45;89.82;101957.38;5029870;28;20056;-84
2021/12/12 02:07:58;;;;;;;29.25;9.95;;;;;;;3.42;89.94;101954.66;5034446;28;20120;-82
2021/12/12 02:10:31;;;;;;;40.78;17.83;;;;;;;3.41;90.16;101956.38;5028802;28;20488;-83
2021/12/12 02:13:02;;;;;;;22.85;9.18;;;;;;;3.39;91.06;101958.03;5031194;28;20036;-83
2021/12/12 02:15:31;;;;;;;21.48;10.30;;;;;;;3.38;91.02;101953.66;5029231;28;20075;-86
2021/12/12 02:17:57;;;;;;;19.35;9.02;;;;;;;3.38;91.13;101952.81;5042494;28;20041;-82
2021/12/12 02:20:36;;;;;;;27.13;11.23;;;;;;;3.37;91.66;101949.31;5013369;28;20079;-78
2021/12/12 02:23:14;;;;;;;32.45;10.27;;;;;;;3.38;91.60;101950.22;5031033;28;20048;-82
2021/12/12 02:36:49;;;;;;;32.78;13.63;;;;;;;3.39;92.36;101939.00;5048472;28;20043;-83
2021/12/12 02:39:16;;;;;;;23.33;9.07;;;;;;;3.41;92.41;101938.22;5013755;28;20037;-83
2021/12/12 02:41:53;;;;;;;24.52;10.43;;;;;;;3.44;91.85;101950.41;5013059;28;20044;-85
2021/12/12 02:44:23;;;;;;;24.80;8.40;;;;;;;3.42;92.13;101945.19;5042590;28;20033;-84
2021/12/12 02:46:53;;;;;;;22.53;9.43;;;;;;;3.44;92.65;101937.47;5017609;28;20125;-83
2021/12/12 02:49:53;;;;;;;33.75;8.73;;;;;;;3.45;92.67;101932.31;5034037;28;20324;-88
2021/12/12 02:52:25;;;;;;;17.77;8.68;;;;;;;3.44;92.74;101927.97;5033314;28;20115;-86
2021/12/12 02:54:51;;;;;;;33.58;10.50;;;;;;;3.45;93.46;101923.69;5033357;28;20028;-86
2021/12/12 02:57:17;;;;;;;25.73;12.23;;;;;;;3.45;92.95;101914.19;5016913;28;20103;-86
2021/12/12 02:59:48;;;;;;;19.65;8.27;;;;;;;3.46;93.24;101928.91;5033247;28;20477;-83
2021/12/12 03:02:16;;;;;;;;;;;;;;;3.47;93.24;101912.50;5034599;28;20481;-83
2021/12/12 03:04:42;;;;;;;19.20;8.90;;;;;;;3.45;93.82;101909.00;5031959;28;19931;-83
2021/12/12 03:07:10;;;;;;;26.67;12.32;;;;;;;3.45;93.62;101911.59;5034768;28;20025;-84
2021/12/12 03:09:54;;;;;;;24.25;9.10;;;;;;;3.45;94.03;101911.59;5035052;28;20048;-83
2021/12/12 03:12:33;;;;;;;23.83;10.10;;;;;;;3.47;93.59;101917.69;5034285;28;20370;-87
2021/12/12 03:15:07;;;;;;;28.20;10.40;;;;;;;3.47;94.47;101912.50;5043214;28;20036;-80
2021/12/12 03:17:33;;;;;;;25.48;9.02;;;;;;;3.49;94.59;101916.88;5034617;28;20374;-84
2021/12/12 03:20:06;;;;;;;21.55;8.88;;;;;;;3.50;94.63;101916.06;5000812;28;20060;-83
2021/12/12 03:22:32;;;;;;;26.67;10.00;;;;;;;3.50;95.05;101921.25;5027521;28;20028;-82
2021/12/12 03:24:58;;;;;;;26.13;9.32;;;;;;;3.51;94.96;101917.84;5016598;28;20029;-86
2021/12/12 03:27:24;;;;;;;28.45;11.15;;;;;;;3.53;95.06;101913.56;5016664;28;20098;-81
2021/12/12 03:29:52;;;;;;;25.95;9.13;;;;;;;3.53;95.35;101906.66;5016545;28;20032;-85
2021/12/12 03:32:21;;;;;;;24.40;8.93;;;;;;;3.54;95.36;101892.00;5034497;28;20079;-87
2021/12/12 03:34:54;;;;;;;23.90;9.10;;;;;;;3.56;95.54;101888.66;5034928;28;20056;-86
2021/12/12 03:37:25;;;;;;;22.70;9.18;;;;;;;3.58;95.17;101888.69;5020390;28;20458;-84
2021/12/12 03:39:54;;;;;;;28.40;9.15;;;;;;;3.61;95.49;101879.31;5034885;28;20098;-86
2021/12/12 03:42:22;;;;;;;30.50;9.55;;;;;;;3.64;95.62;101870.75;5017981;28;20758;-87
2021/12/12 03:44:50;;;;;;;18.95;9.45;;;;;;;3.64;95.91;101878.53;5033406;28;20033;-87
2021/12/12 03:47:23;;;;;;;30.92;9.80;;;;;;;3.69;95.79;101881.28;5033265;28;20032;-80
2021/12/12 03:49:50;;;;;;;28.90;11.25;;;;;;;3.72;95.83;101871.91;5034256;28;20103;-89
2021/12/12 03:52:18;;;;;;;18.98;9.25;;;;;;;3.71;95.89;101872.72;5014760;28;20400;-85
2021/12/12 03:54:45;;;;;;;29.58;8.43;;;;;;;3.77;95.96;101875.50;5033918;28;20025;-86
2021/12/12 03:57:11;;;;;;;20.75;9.93;;;;;;;3.79;96.31;101873.88;5032035;28;20436;-81
2021/12/12 03:59:37;;;;;;;17.58;7.25;;;;;;;3.83;96.33;101873.97;5047991;28;20045;-86
2021/12/12 04:02:04;;;;;;;18.02;8.10;;;;;;;3.86;95.69;101872.31;5014813;28;20449;-84
2021/12/12 04:04:36;;;;;;;24.33;8.45;;;;;;;3.91;95.90;101885.47;5012411;28;20127;-82
2021/12/12 04:07:09;;;;;;;19.15;8.70;;;;;;;3.95;96.15;101874.34;5048404;28;20029;-84
2021/12/12 04:09:35;;;;;;;15.40;8.07;;;;;;;3.95;95.70;101874.34;5031852;28;20033;-83
2021/12/12 04:12:04;;;;;;;24.88;9.27;;;;;;;4.00;95.76;101870.19;5032288;28;20025;-83
2021/12/12 04:14:30;;;;;;;16.40;7.95;;;;;;;4.02;95.50;101876.28;5029876;28;20025;-80
2021/12/12 04:16:59;;;;;;;20.02;8.52;;;;;;;4.06;95.98;101880.75;5001020;28;20032;-83
2021/12/12 04:19:25;;;;;;;15.68;8.05;;;;;;;4.12;95.42;101880.06;5033246;28;20040;-85
2021/12/12 04:21:51;;;;;;;15.40;8.73;;;;;;;4.13;95.23;101887.88;5032650;28;20021;-84
2021/12/12 04:24:25;;;;;;;14.93;7.07;;;;;;;4.16;95.41;101882.78;5032744;28;20021;-84
2021/12/12 04:26:51;;;;;;;22.50;8.65;;;;;;;4.21;95.44;101892.44;5025797;28;20504;-83
2021/12/12 04:29:23;;;;;;;11.85;8.15;;;;;;;4.24;95.00;101892.53;5013548;28;20115;-85
2021/12/12 04:31:56;;;;;;;14.65;7.13;;;;;;;4.24;95.07;101887.34;5025156;28;20075;-74
2021/12/12 04:34:25;;;;;;;15.13;7.90;;;;;;;4.28;94.71;101894.38;5031801;28;20031;-75
2021/12/12 04:36:53;;;;;;;17.42;7.72;;;;;;;4.30;94.67;101900.53;5031483;28;20476;-76
2021/12/12 04:39:25;;;;;;;11.57;7.63;;;;;;;4.28;94.88;101892.69;5025609;28;20074;-75
2021/12/12 04:41:53;;;;;;;13.80;7.78;;;;;;;4.29;94.87;101891.84;5032692;28;20066;-77
2021/12/12 04:44:25;;;;;;;10.27;7.57;;;;;;;4.29;94.82;101891.84;5030341;28;20036;-75
2021/12/12 04:49:56;;;;;;;17.15;7.20;;;;;;;4.30;94.86;101883.22;5040031;28;20446;-75
2021/12/12 04:52:51;;;;;;;14.57;7.10;;;;;;;4.34;94.66;101889.41;5027526;28;20061;-73
2021/12/12 04:55:32;;;;;;;19.88;7.97;;;;;;;4.32;94.48;101891.97;5007316;28;20036;-74
2021/12/12 04:58:08;;;;;;;;;;;;;;;4.37;94.60;101905.06;5022109;28;20061;-76
2021/12/12 05:00:41;;;;;;;16.10;7.40;;;;;;;4.36;94.13;101890.31;5021436;28;19979;-75
2021/12/12 05:03:19;;;;;;;16.27;7.70;;;;;;;4.36;94.57;101887.72;5031142;28;20120;-74
2021/12/12 05:05:56;;;;;;;12.63;8.18;;;;;;;4.35;93.99;101885.97;5031505;28;20397;-74
2021/12/12 05:08:45;;;;;;;8.82;7.75;;;;;;;4.36;94.49;101890.31;5035051;28;20366;-74
2021/12/12 05:11:20;;;;;;;14.43;8.52;;;;;;;4.36;94.33;101900.72;5030008;28;20469;-74
2021/12/12 05:13:59;;;;;;;18.55;8.10;;;;;;;4.39;94.19;101897.34;5031202;28;20035;-77
2021/12/12 05:16:31;;;;;;;14.45;7.32;;;;;;;4.39;94.20;101903.38;5029572;28;20039;-75
2021/12/12 05:19:08;;;;;;;11.70;7.88;;;;;;;4.39;94.29;101908.59;5048387;28;20116;-74
2021/12/12 05:21:38;;;;;;;16.98;7.68;;;;;;;4.40;94.28;101910.34;5037326;28;20461;-74
2021/12/12 05:24:08;;;;;;;12.00;8.13;;;;;;;4.43;94.57;101904.38;5031772;28;20055;-75
2021/12/12 05:26:40;;;;;;;14.00;8.18;;;;;;;4.45;94.20;101913.09;5032170;28;20115;-74
2021/12/12 05:29:20;;;;;;;15.30;8.57;;;;;;;4.46;94.15;101915.72;5029351;28;20029;-73
2021/12/12 05:31:48;;;;;;;12.93;7.60;;;;;;;4.47;94.52;101917.50;5028566;28;20060;-74
2021/12/12 05:34:17;;;;;;;15.15;9.15;;;;;;;4.47;94.28;101909.69;5031474;28;20029;-74
2021/12/12 05:36:45;;;;;;;12.48;8.43;;;;;;;4.49;94.05;101910.63;5030166;28;20045;-74
2021/12/12 05:39:11;;;;;;;19.77;9.18;;;;;;;4.50;94.09;101914.97;5030916;28;20043;-74
2021/12/12 05:41:37;;;;;;;19.75;9.18;;;;;;;4.51;94.53;101911.56;5015373;28;20041;-73
2021/12/12 05:44:05;;;;;;;9.13;7.57;;;;;;;4.53;94.52;101910.75;5028818;28;20037;-75
2021/12/12 05:46:30;;;;;;;12.52;8.30;;;;;;;4.54;94.32;101918.56;5016279;28;20032;-74
2021/12/12 05:48:59;;;;;;;13.38;8.25;;;;;;;4.55;94.28;101912.53;5032167;28;20028;-74
2021/12/12 05:51:25;;;;;;;11.18;9.20;;;;;;;4.55;94.20;101924.63;4993864;28;20033;-74
2021/12/12 05:53:54;;;;;;;11.98;8.73;;;;;;;4.56;94.23;101910.81;5011167;28;20456;-74
2021/12/12 05:56:26;;;;;;;11.65;8.65;;;;;;;4.56;94.20;101916.03;5026119;28;20061;-73
2021/12/12 05:58:52;;;;;;;11.80;9.02;;;;;;;4.59;94.27;101916.97;5051242;28;20032;-73
2021/12/12 06:01:19;;;;;;;13.88;8.93;;;;;;;4.58;93.84;101909.16;5017672;28;20094;-74
2021/12/12 06:03:46;;;;;;;16.88;8.98;;;;;;;4.61;93.89;101922.22;5007940;28;20037;-74
2021/12/12 06:06:15;;;;;;;14.15;8.70;;;;;;;4.62;94.33;101930.03;4997808;28;20618;-75
2021/12/12 06:08:43;;;;;;;17.05;9.50;;;;;;;4.63;94.31;101924.03;5058430;28;20032;-75
2021/12/12 06:11:12;;;;;;;9.52;8.13;;;;;;;4.63;94.20;101923.16;5028347;28;20033;-76
2021/12/12 06:13:39;;;;;;;14.30;9.05;;;;;;;4.65;94.25;101926.66;5027897;28;20017;-75
2021/12/12 06:16:06;;;;;;;9.15;8.00;;;;;;;4.65;94.40;101927.53;5010840;28;20040;-74
2021/12/12 06:18:34;;;;;;;10.25;8.05;;;;;;;4.67;94.61;101927.63;5028787;28;20055;-74
2021/12/12 06:20:59;;;;;;;11.13;9.55;;;;;;;4.69;93.86;101929.41;5043786;28;20028;-82
2021/12/12 06:23:26;;;;;;;11.55;7.65;;;;;;;4.73;94.39;101932.97;4998485;28;20034;-84
2021/12/12 06:25:52;;;;;;;9.43;7.80;;;;;;;4.76;94.28;101939.97;5025585;28;20016;-82
2021/12/12 06:28:22;;;;;;;11.25;8.32;;;;;;;4.77;94.32;101934.84;5035302;28;20083;-81
2021/12/12 06:30:48;;;;;;;;;;;;;;;4.80;93.75;101934.91;5030729;28;20043;-82
2021/12/12 06:33:14;;;;;;;10.30;7.22;;;;;;;4.82;93.84;101929.78;5031407;28;19913;-84
2021/12/12 06:35:41;;;;;;;9.68;7.80;;;;;;;4.84;94.29;101935.88;5033450;28;20039;-84
2021/12/12 06:38:10;;;;;;;11.05;7.95;;;;;;;4.85;94.20;101927.25;5031301;28;20393;-87
2021/12/12 06:40:37;;;;;;;8.68;7.32;;;;;;;4.86;94.41;101929.03;5027977;28;20109;-85
2021/12/12 06:43:09;;;;;;;11.05;8.30;;;;;;;4.88;94.02;101932.53;5002558;28;20060;-87
2021/12/12 06:45:35;;;;;;;11.25;8.07;;;;;;;4.91;94.05;101935.22;5041558;28;20029;-83
2021/12/12 06:48:04;;;;;;;14.43;8.05;;;;;;;4.94;94.04;101931.84;5018231;28;20025;-85
2021/12/12 06:50:30;;;;;;;10.18;7.63;;;;;;;4.96;94.00;101933.66;5017565;28;20065;-85
2021/12/12 06:52:56;;;;;;;12.30;8.73;;;;;;;4.99;93.87;101932.88;4989512;28;20056;-83
2021/12/12 06:55:22;;;;;;;13.90;8.20;;;;;;;5.01;93.84;101938.97;5014999;28;20423;-81
2021/12/12 06:57:49;;;;;;;20.02;8.88;;;;;;;5.02;94.19;101936.41;5035363;28;20076;-83
2021/12/12 07:00:19;;;;;;;12.30;8.65;;;;;;;5.04;94.07;101941.66;5032945;28;20083;-84
2021/12/12 07:02:45;;;;;;;20.73;7.97;;;;;;;5.07;93.97;101940.88;5028488;28;20044;-83
2021/12/12 07:05:14;;;;;;;13.20;8.13;;;;;;;5.09;94.19;101939.22;5019879;28;20370;-82
2021/12/12 07:07:40;;;;;;;12.73;8.15;;;;;;;5.11;94.01;101942.72;5036448;28;20039;-86
2021/12/12 07:10:07;;;;;;;14.95;9.30;;;;;;;5.13;93.96;101933.22;5036894;28;20020;-85
2021/12/12 07:12:33;;;;;;;10.27;8.13;;;;;;;5.15;93.81;101935.03;5031339;28;20040;-87
2021/12/12 07:14:59;;;;;;;12.65;8.75;;;;;;;5.18;94.17;101937.72;5052061;28;20481;-84
2021/12/12 07:17:25;;;;;;;16.17;8.63;;;;;;;5.19;94.09;101936.91;5016683;28;20071;-85
2021/12/12 07:19:53;;;;;;;12.50;8.10;;;;;;;5.20;94.02;101933.47;5012554;28;20049;-88
2021/12/12 07:22:19;;;;;;;13.13;8.48;;;;;;;5.24;94.38;101942.22;5010377;28;20037;-83
2021/12/12 07:24:45;;;;;;;12.80;8.80;;;;;;;5.23;94.39;101935.28;5031624;28;20033;-85
2021/12/12 07:27:14;;;;;;;14.18;8.23;;;;;;;5.25;94.35;101940.50;5030261;28;20341;-85
2021/12/12 07:29:39;;;;;;;16.35;9.43;;;;;;;5.27;94.52;101934.53;5023844;28;20120;-85
2021/12/12 07:32:05;;;;;;;13.60;8.40;;;;;;;5.30;94.38;101937.22;5001915;28;20120;-86
2021/12/12 07:34:31;;;;;;;11.93;8.20;;;;;;;5.33;94.58;101926.00;5005073;28;20065;-86
2021/12/12 07:37:01;;;;;;;14.73;8.95;;;;;;;5.38;94.49;101933.06;5014349;28;20087;-83
2021/12/12 07:39:29;;;;;;;13.75;8.90;;;;;;;5.40;94.12;101940.91;5034942;28;20389;-87
2021/12/12 07:42:01;;;;;;;10.75;8.52;;;;;;;5.43;94.07;101934.94;5016582;28;20136;-85
2021/12/12 07:44:31;;;;;;;15.40;8.35;;;;;;;5.46;93.95;101940.19;5031046;28;20029;-85
2021/12/12 07:46:58;;;;;;;15.20;8.33;;;;;;;5.47;94.21;101948.03;5033373;28;20033;-83
2021/12/12 07:49:31;;;;;;;16.48;8.50;;;;;;;5.49;94.52;101946.38;5035881;28;20390;-82
2021/12/12 07:51:58;;;;;;;17.85;8.80;;;;;;;5.52;94.00;101950.78;5032132;28;20024;-73
2021/12/12 07:54:24;;;;;;;13.80;8.85;;;;;;;5.54;94.21;101949.97;5036431;28;20485;-73
2021/12/12 07:56:50;;;;;;;16.65;8.88;;;;;;;5.58;93.91;101957.88;5016889;28;20152;-86
2021/12/12 08:09:45;;;;;;;18.85;11.32;;;;;;;5.69;94.19;101975.50;5042508;28;20047;-84
2021/12/12 08:12:14;;;;;;;15.20;9.05;;;;;;;5.69;93.82;101974.66;5048520;28;20025;-87
2021/12/12 08:14:40;;;;;;;15.48;9.30;;;;;;;5.74;94.04;101983.44;5057131;28;20039;-85
2021/12/12 08:17:44;;;;;;;14.63;9.80;;;;;;;5.76;94.46;101989.56;5020727;28;20515;-85
2021/12/12 08:23:32;;;;;;;16.75;9.18;;;;;;;5.83;93.69;102004.50;5050080;28;20171;-84
2021/12/12 08:29:20;;;;;;;21.05;10.32;;;;;;;5.88;94.51;101997.69;5040299;28;20145;-84
2021/12/12 08:31:46;;;;;;;18.88;10.55;;;;;;;5.90;94.29;101996.03;5036607;28;20163;-84
2021/12/12 08:34:13;;;;;;;15.35;10.07;;;;;;;5.93;94.85;101999.53;5019176;28;20116;-83
2021/12/12 08:36:44;;;;;;;19.90;10.32;;;;;;;5.96;94.20;102010.91;5057230;28;20469;-82
2021/12/12 08:39:10;;;;;;;;;;;;;;;5.99;94.24;102004.91;5037891;28;20033;-86
2021/12/12 08:41:36;;;;;;;17.80;9.55;;;;;;;6.01;93.74;102008.44;5033498;28;19979;-85
2021/12/12 08:44:04;;;;;;;18.40;9.20;;;;;;;6.03;94.31;102004.16;5034066;28;20102;-88
2021/12/12 08:46:31;;;;;;;18.10;9.88;;;;;;;6.03;94.32;102005.06;5053688;28;20118;-86
2021/12/12 08:48:59;;;;;;;19.70;9.38;;;;;;;6.04;94.40;102004.19;5049369;28;20051;-84
2021/12/12 08:51:31;;;;;;;19.38;11.52;;;;;;;6.08;94.67;102018.19;5033642;28;20074;-84
2021/12/12 08:54:03;;;;;;;19.13;9.70;;;;;;;6.08;94.15;102015.56;5034471;28;20155;-86
2021/12/12 08:56:51;;;;;;;14.52;10.40;;;;;;;6.12;94.75;102011.31;5027520;28;20051;-85
2021/12/12 08:59:20;;;;;;;21.98;10.20;;;;;;;6.14;94.63;102009.66;5032246;28;20044;-84
2021/12/12 09:01:48;;;;;;;16.27;10.45;;;;;;;6.15;94.42;102011.38;5036201;28;20029;-84
2021/12/12 09:04:16;;;;;;;11.63;9.40;;;;;;;6.16;94.51;102024.47;5008656;28;20048;-86
2021/12/12 09:06:48;;;;;;;20.10;9.73;;;;;;;6.18;94.93;102020.16;5017153;28;20488;-85
2021/12/12 09:09:22;;;;;;;16.38;9.63;;;;;;;6.20;94.56;102031.47;5031040;28;20388;-87
2021/12/12 09:12:06;;;;;;;17.23;9.73;;;;;;;6.24;94.08;102028.13;5039166;28;20478;-85
2021/12/12 09:15:01;;;;;;;18.55;9.85;;;;;;;6.30;94.70;102031.72;5036191;28;20088;-85
2021/12/12 09:17:39;;;;;;;17.50;11.18;;;;;;;6.30;94.89;102036.94;5004995;28;20410;-85
2021/12/12 09:20:26;;;;;;;20.90;11.50;;;;;;;6.34;95.64;102038.78;5032707;28;20139;-84
2021/12/12 09:23:01;;;;;;;18.10;9.52;;;;;;;6.36;94.39;102047.50;5038952;28;20048;-87
2021/12/12 09:25:36;;;;;;;25.73;10.75;;;;;;;6.38;94.57;102049.31;5032933;28;20036;-82
2021/12/12 09:28:08;;;;;;;18.73;10.57;;;;;;;6.37;94.41;102050.13;5033703;28;20033;-85
2021/12/12 09:30:35;;;;;;;15.90;10.48;;;;;;;6.38;94.72;102043.22;5031666;28;20025;-85
2021/12/12 09:33:10;;;;;;;18.83;10.07;;;;;;;6.41;94.69;102061.53;5008163;28;20036;-86
2021/12/12 09:35:48;;;;;;;19.08;10.15;;;;;;;6.40;94.68;102059.75;5031736;28;20041;-86
2021/12/12 09:38:42;;;;;;;18.15;9.57;;;;;;;6.45;94.48;102062.47;5043469;28;20485;-84
2021/12/12 09:41:23;;;;;;;18.23;10.07;;;;;;;6.47;94.83;102066.88;5031787;28;20045;-87
2021/12/12 09:44:14;;;;;;;13.25;9.65;;;;;;;6.48;94.67;102066.03;5049191;28;20017;-83
2021/12/12 09:46:55;;;;;;;;;;;;;;;6.51;94.39;102073.06;5057644;28;20110;-87
2021/12/12 09:52:48;;;;;;;15.07;9.88;;;;;;;6.57;94.32;102081.88;5045011;28;20032;-86
2021/12/12 09:55:22;;;;;;;14.68;9.77;;;;;;;6.57;94.96;102079.28;5046524;28;20048;-86
2021/12/12 09:58:02;;;;;;;16.00;9.63;;;;;;;6.58;94.33;102073.22;5034011;28;20421;-85
2021/12/12 10:00:45;;;;;;;21.90;10.70;;;;;;;6.62;94.41;102081.13;5054058;28;20041;-86
2021/12/12 10:03:28;;;;;;;13.02;9.32;;;;;;;6.65;94.87;102075.97;5029453;28;20029;-88
2021/12/12 10:06:17;;;;;;;15.30;10.43;;;;;;;6.68;95.32;102071.75;5027135;28;20032;-88
2021/12/12 10:08:45;;;;;;;18.00;9.60;;;;;;;6.68;94.51;102074.34;5041498;28;20025;-89
2021/12/12 10:11:26;;;;;;;19.70;10.23;;;;;;;6.69;95.19;102068.25;5035445;28;20028;-85
2021/12/12 10:14:08;;;;;;;18.33;9.70;;;;;;;6.75;94.41;102072.75;5042093;28;20032;-88
2021/12/12 10:20:03;;;;;;;18.63;9.43;;;;;;;6.78;94.98;102067.63;5051972;28;20087;-86
2021/12/12 10:26:38;;;;;;;16.92;8.75;;;;;;;6.83;94.70;102068.59;5071085;28;20089;-88
2021/12/12 10:29:41;;;;;;;22.13;9.70;;;;;;;6.85;94.47;102072.16;4976250;28;20027;-87
2021/12/12 10:32:14;;;;;;;21.20;10.05;;;;;;;6.86;95.00;102071.28;4975285;28;20034;-85
2021/12/12 10:34:45;;;;;;;20.27;10.10;;;;;;;6.88;94.50;102063.50;4959425;28;20049;-87
2021/12/12 10:37:23;;;;;;;22.27;10.75;;;;;;;6.90;94.38;102070.50;4998468;28;20051;-85
2021/12/12 10:40:06;;;;;;;13.73;10.13;;;;;;;6.93;94.55;102064.50;5035227;28;20029;-89
2021/12/12 10:42:36;;;;;;;21.60;9.88;;;;;;;6.94;94.33;102074.94;5019117;28;20021;-85
2021/12/12 11:04:56;;;;;;;18.60;10.25;;;;;;;7.12;94.39;102071.00;5040569;28;20265;-89
2021/12/12 11:07:29;;;;;;;16.95;9.82;;;;;;;7.13;94.64;102072.75;5037373;28;20029;-87
2021/12/12 11:10:05;;;;;;;20.27;10.80;;;;;;;7.18;94.80;102072.84;5038380;28;20024;-88
2021/12/12 11:15:57;;;;;;;20.35;10.38;;;;;;;7.23;95.10;102073.84;5036683;28;20386;-85
2021/12/12 11:22:22;;;;;;;14.77;10.98;;;;;;;7.31;94.89;102063.56;5069519;28;20119;-86
2021/12/12 11:24:57;;;;;;;18.52;10.75;;;;;;;7.34;94.39;102067.16;5046039;28;20094;-88
2021/12/12 11:27:34;;;;;;;15.60;10.63;;;;;;;7.36;94.64;102062.81;5038782;28;20099;-87
2021/12/12 11:30:27;;;;;;;13.50;9.52;;;;;;;7.38;94.69;102070.69;5044381;28;20036;-86
2021/12/12 11:32:58;;;;;;;14.32;9.75;;;;;;;7.37;93.94;102066.31;5022709;28;20103;-90
2021/12/12 11:35:25;;;;;;;13.07;9.38;;;;;;;7.38;94.07;102066.34;5037512;28;20036;-89
2021/12/12 11:37:55;;;;;;;15.05;9.52;;;;;;;7.39;94.13;102070.72;5020899;28;20058;-88
2021/12/12 11:40:58;;;;;;;17.70;10.60;;;;;;;7.41;94.49;102070.75;5016483;28;20041;-89
2021/12/12 11:43:37;;;;;;;13.10;9.27;;;;;;;7.40;94.01;102071.63;5041159;28;20276;-88
2021/12/12 11:46:19;;;;;;;11.85;9.57;;;;;;;7.43;94.12;102074.28;5017436;28;20037;-85
2021/12/12 11:48:55;;;;;;;11.82;9.38;;;;;;;7.42;94.60;102078.59;5019548;28;20048;-87
2021/12/12 11:51:40;;;;;;;9.88;8.63;;;;;;;7.45;94.09;102072.56;5029727;28;20095;-87
2021/12/12 11:54:18;;;;;;;15.95;9.85;;;;;;;7.46;94.11;102069.13;5016047;28;20044;-86
2021/12/12 11:56:49;;;;;;;14.82;8.55;;;;;;;7.46;93.88;102076.94;5031774;28;20079;-85
2021/12/12 12:03:04;;;;;;;14.45;9.32;;;;;;;7.49;94.43;102068.31;5034673;28;20036;-86
2021/12/12 12:05:37;;;;;;;13.93;10.38;;;;;;;7.49;94.02;102071.78;5033469;28;20044;-87
2021/12/12 12:08:21;;;;;;;13.93;10.30;;;;;;;7.51;94.19;102075.28;5017322;28;20017;-86
2021/12/12 12:11:18;;;;;;;14.82;7.95;;;;;;;7.52;94.84;102071.84;5016453;28;20035;-91
2021/12/12 12:14:09;;;;;;;12.15;8.85;;;;;;;7.53;94.03;102076.22;5016712;28;20056;-85
2021/12/12 12:17:08;;;;;;;10.48;8.80;;;;;;;7.57;94.09;102082.38;5017091;28;20492;-85
2021/12/12 12:20:08;;;;;;;11.30;8.43;;;;;;;7.60;94.00;102079.81;5016266;28;20083;-88
2021/12/12 12:22:58;;;;;;;11.82;8.27;;;;;;;7.63;94.24;102085.13;4997405;28;20029;-87
2021/12/12 12:35:58;;;;;;;13.25;8.90;;;;;;;7.72;94.39;102082.69;4966944;28;20038;-87
2021/12/12 12:38:51;;;;;;;12.13;9.30;;;;;;;7.75;94.09;102087.09;4967477;28;20038;-86
2021/12/12 12:41:51;;;;;;;10.90;9.82;;;;;;;7.78;94.52;102087.16;4992241;28;20046;-86
2021/12/12 12:48:15;;;;;;;11.43;9.85;;;;;;;7.83;94.60;102087.22;4954367;29;20086;-89
2021/12/12 12:51:00;;;;;;;10.40;9.40;;;;;;;7.85;94.85;102089.03;4933861;29;20078;-86
2021/12/12 12:53:49;;;;;;;11.10;9.57;;;;;;;7.88;94.12;102089.09;4923263;29;20043;-85
2021/12/12 13:03:18;;;;;;;10.25;9.25;;;;;;;7.91;94.53;102089.13;5063487;28;20098;-85
2021/12/12 13:06:02;;;;;;;13.93;10.95;;;;;;;7.93;94.60;102097.00;5044307;28;20029;-86
2021/12/12 13:12:28;;;;;;;16.67;10.32;;;;;;;7.96;94.61;102102.31;5029772;28;20041;-85
2021/12/12 13:18:40;;;;;;;12.10;10.65;;;;;;;8.00;94.29;102098.00;5054124;28;20085;-87
2021/12/12 13:21:32;;;;;;;13.80;10.60;;;;;;;8.01;94.25;102105.00;5039658;28;20040;-84
2021/12/12 13:24:09;;;;;;;12.48;10.05;;;;;;;8.00;94.30;102098.00;5037920;28;20017;-84
2021/12/12 13:27:57;;;;;;;12.90;10.20;;;;;;;8.01;94.81;102103.25;5034445;28;20385;-87
2021/12/12 13:34:07;;;;;;;13.35;10.25;;;;;;;8.03;94.77;102103.28;5036970;28;20462;-87
2021/12/12 13:36:38;;;;;;;14.85;11.82;;;;;;;8.04;94.36;102115.50;5031957;28;20473;-84
2021/12/12 13:39:07;;;;;;;12.80;11.38;;;;;;;8.04;94.59;102111.13;5054516;28;20060;-85